sensor_id;sensor_type;location;lat;lon;timestamp;temperature;humidity
19906;DHT22;10115;50.906;4.438;2023-02-15T00:00:27;3.60;99.90
19906;DHT22;10115;50.906;4.438;2023-02-15T00:02:52;3.60;99.90
19906;DHT22;10115;50.906;4.438;2023-02-15T00:05:18;3.60;99.90
19906;DHT22;10115;50.906;4.438;2023-02-15T00:07:43;3.70;99.90
19906;DHT22;10115;50.906;4.438;2023-02-15T00:10:09;3.70;99.90
19906;DHT22;10115;50.906;4.438;2023-02-15T00:12:37;3.70;99.90
19906;DHT22;10115;50.906;4.438;2023-02-15T00:15:03;3.70;99.90
19906;DHT22;10115;50.906;4.438;2023-02-15T00:17:29;3.70;99.90
19906;DHT22;10115;50.906;4.438;2023-02-15T00:19:54;3.70;99.90
19906;DHT22;10115;50.906;4.438;2023-02-15T00:22:20;3.80;99.90
19906;DHT22;10115;50.906;4.438;2023-02-15T00:24:46;3.80;99.90
19906;DHT22;10115;50.906;4.438;2023-02-15T00:27:12;3.90;99.90
19906;DHT22;10115;50.906;4.438;2023-02-15T00:29:37;3.80;99.90
19906;DHT22;10115;50.906;4.438;2023-02-15T00:32:03;4.00;99.90
19906;DHT22;10115;50.906;4.438;2023-02-15T00:34:29;4.00;99.90
19906;DHT22;10115;50.906;4.438;2023-02-15T00:36:55;3.90;99.90
19906;DHT22;10115;50.906;4.438;2023-02-15T00:39:20;3.80;99.90
19906;DHT22;10115;50.906;4.438;2023-02-15T00:41:47;3.70;99.90
19906;DHT22;10115;50.906;4.438;2023-02-15T00:44:13;3.80;99.90
19906;DHT22;10115;50.906;4.438;2023-02-15T00:46:39;3.80;99.90
19906;DHT22;10115;50.906;4.438;2023-02-15T00:49:05;3.80;99.90
19906;DHT22;10115;50.906;4.438;2023-02-15T00:51:32;3.70;99.90
19906;DHT22;10115;50.906;4.438;2023-02-15T00:53:57;3.70;99.90
19906;DHT22;10115;50.906;4.438;2023-02-15T00:56:23;3.70;99.90
19906;DHT22;10115;50.906;4.438;2023-02-15T00:58:49;3.70;99.90
19906;DHT22;10115;50.906;4.438;2023-02-15T01:01:18;3.70;99.90
19906;DHT22;10115;50.906;4.438;2023-02-15T01:03:44;3.60;99.90
19906;DHT22;10115;50.906;4.438;2023-02-15T01:06:11;3.60;99.90
19906;DHT22;10115;50.906;4.438;2023-02-15T01:08:37;3.60;99.90
19906;DHT22;10115;50.906;4.438;2023-02-15T01:11:08;3.70;99.90
19906;DHT22;10115;50.906;4.438;2023-02-15T01:13:35;3.60;99.90
19906;DHT22;10115;50.906;4.438;2023-02-15T01:16:01;3.60;99.90
19906;DHT22;10115;50.906;4.438;2023-02-15T01:18:27;3.70;99.90
19906;DHT22;10115;50.906;4.438;2023-02-15T01:20:53;3.60;99.90
19906;DHT22;10115;50.906;4.438;2023-02-15T01:23:18;3.50;99.90
19906;DHT22;10115;50.906;4.438;2023-02-15T01:25:44;3.40;99.90
19906;DHT22;10115;50.906;4.438;2023-02-15T01:28:10;3.40;99.90
19906;DHT22;10115;50.906;4.438;2023-02-15T01:30:36;3.40;99.90
19906;DHT22;10115;50.906;4.438;2023-02-15T01:33:01;3.30;99.90
19906;DHT22;10115;50.906;4.438;2023-02-15T01:35:28;3.20;99.90
19906;DHT22;10115;50.906;4.438;2023-02-15T01:37:57;3.10;99.90
19906;DHT22;10115;50.906;4.438;2023-02-15T01:40:24;3.00;99.90
19906;DHT22;10115;50.906;4.438;2023-02-15T01:42:51;3.00;99.90
19906;DHT22;10115;50.906;4.438;2023-02-15T01:50:59;3.00;99.90
19906;DHT22;10115;50.906;4.438;2023-02-15T01:53:34;3.00;99.90
19906;DHT22;10115;50.906;4.438;2023-02-15T01:56:09;2.90;99.90
19906;DHT22;10115;50.906;4.438;2023-02-15T01:58:37;2.90;99.90
19906;DHT22;10115;50.906;4.438;2023-02-15T02:01:03;2.90;99.90
19906;DHT22;10115;50.906;4.438;2023-02-15T02:04:04;2.80;99.90
19906;DHT22;10115;50.906;4.438;2023-02-15T02:06:29;2.80;99.90
19906;DHT22;10115;50.906;4.438;2023-02-15T02:08:56;2.80;99.90
19906;DHT22;10115;50.906;4.438;2023-02-15T02:11:22;2.80;99.90
19906;DHT22;10115;50.906;4.438;2023-02-15T02:13:48;2.70;99.90
19906;DHT22;10115;50.906;4.438;2023-02-15T02:16:24;2.70;99.90
19906;DHT22;10115;50.906;4.438;2023-02-15T02:25:23;2.50;99.90
19906;DHT22;10115;50.906;4.438;2023-02-15T02:33:57;2.50;99.90
19906;DHT22;10115;50.906;4.438;2023-02-15T02:36:31;2.40;99.90
19906;DHT22;10115;50.906;4.438;2023-02-15T02:42:12;2.40;99.90
19906;DHT22;10115;50.906;4.438;2023-02-15T02:50:15;2.40;99.90
19906;DHT22;10115;50.906;4.438;2023-02-15T02:55:29;2.50;99.90
19906;DHT22;10115;50.906;4.438;2023-02-15T03:00:30;2.50;99.90
19906;DHT22;10115;50.906;4.438;2023-02-15T03:03:08;2.60;99.90
19906;DHT22;10115;50.906;4.438;2023-02-15T03:05:39;2.60;99.90
19906;DHT22;10115;50.906;4.438;2023-02-15T03:08:09;2.60;99.90
19906;DHT22;10115;50.906;4.438;2023-02-15T03:10:36;2.60;99.90
19906;DHT22;10115;50.906;4.438;2023-02-15T03:13:02;2.60;99.90
19906;DHT22;10115;50.906;4.438;2023-02-15T03:15:34;2.60;99.90
19906;DHT22;10115;50.906;4.438;2023-02-15T03:18:22;2.60;99.90
19906;DHT22;10115;50.906;4.438;2023-02-15T03:20:49;2.50;99.90
19906;DHT22;10115;50.906;4.438;2023-02-15T03:23:21;2.50;99.90
19906;DHT22;10115;50.906;4.438;2023-02-15T03:26:01;2.40;99.90
19906;DHT22;10115;50.906;4.438;2023-02-15T03:28:43;2.40;99.90
19906;DHT22;10115;50.906;4.438;2023-02-15T03:31:12;2.40;99.90
19906;DHT22;10115;50.906;4.438;2023-02-15T03:33:44;2.30;99.90
19906;DHT22;10115;50.906;4.438;2023-02-15T03:36:21;2.30;99.90
19906;DHT22;10115;50.906;4.438;2023-02-15T03:38:59;2.40;99.90
19906;DHT22;10115;50.906;4.438;2023-02-15T03:41:32;2.40;99.90
19906;DHT22;10115;50.906;4.438;2023-02-15T03:44:08;2.30;99.90
19906;DHT22;10115;50.906;4.438;2023-02-15T03:47:32;2.40;99.90
19906;DHT22;10115;50.906;4.438;2023-02-15T03:52:11;2.40;99.90
19906;DHT22;10115;50.906;4.438;2023-02-15T03:54:39;2.40;99.90
19906;DHT22;10115;50.906;4.438;2023-02-15T03:57:28;2.30;99.90
19906;DHT22;10115;50.906;4.438;2023-02-15T04:00:17;2.30;99.90
19906;DHT22;10115;50.906;4.438;2023-02-15T04:05:41;2.40;99.90
19906;DHT22;10115;50.906;4.438;2023-02-15T04:08:07;2.40;99.90
19906;DHT22;10115;50.906;4.438;2023-02-15T04:10:33;2.30;99.90
19906;DHT22;10115;50.906;4.438;2023-02-15T04:13:17;2.20;99.90
19906;DHT22;10115;50.906;4.438;2023-02-15T04:15:43;2.20;99.90
19906;DHT22;10115;50.906;4.438;2023-02-15T04:18:27;2.20;99.90
19906;DHT22;10115;50.906;4.438;2023-02-15T04:21:12;2.10;99.90
19906;DHT22;10115;50.906;4.438;2023-02-15T04:23:56;2.10;99.90
19906;DHT22;10115;50.906;4.438;2023-02-15T04:26:40;2.20;99.90
19906;DHT22;10115;50.906;4.438;2023-02-15T04:29:05;2.40;99.90
19906;DHT22;10115;50.906;4.438;2023-02-15T04:31:31;2.50;99.90
19906;DHT22;10115;50.906;4.438;2023-02-15T04:33:56;2.60;99.90
19906;DHT22;10115;50.906;4.438;2023-02-15T04:36:22;2.90;99.90
19906;DHT22;10115;50.906;4.438;2023-02-15T04:38:48;3.10;99.90
19906;DHT22;10115;50.906;4.438;2023-02-15T04:41:13;3.20;99.90
19906;DHT22;10115;50.906;4.438;2023-02-15T04:43:39;3.10;99.90
19906;DHT22;10115;50.906;4.438;2023-02-15T04:46:05;3.00;99.90
19906;DHT22;10115;50.906;4.438;2023-02-15T04:48:30;3.00;99.90
19906;DHT22;10115;50.906;4.438;2023-02-15T04:50:56;3.10;99.90
19906;DHT22;10115;50.906;4.438;2023-02-15T04:53:22;3.00;99.90
19906;DHT22;10115;50.906;4.438;2023-02-15T04:55:47;3.00;99.90
19906;DHT22;10115;50.906;4.438;2023-02-15T04:58:13;3.10;99.90
19906;DHT22;10115;50.906;4.438;2023-02-15T05:00:39;3.00;99.90
19906;DHT22;10115;50.906;4.438;2023-02-15T05:03:04;3.00;99.90
19906;DHT22;10115;50.906;4.438;2023-02-15T05:05:30;3.00;99.90
19906;DHT22;10115;50.906;4.438;2023-02-15T05:07:56;3.20;99.90
19906;DHT22;10115;50.906;4.438;2023-02-15T05:10:22;3.10;99.90
19906;DHT22;10115;50.906;4.438;2023-02-15T05:12:47;3.10;99.90
19906;DHT22;10115;50.906;4.438;2023-02-15T05:15:13;3.00;99.90
19906;DHT22;10115;50.906;4.438;2023-02-15T05:17:39;3.00;99.90
19906;DHT22;10115;50.906;4.438;2023-02-15T05:20:05;2.90;99.90
19906;DHT22;10115;50.906;4.438;2023-02-15T05:22:30;2.90;99.90
19906;DHT22;10115;50.906;4.438;2023-02-15T05:24:56;2.90;99.90
19906;DHT22;10115;50.906;4.438;2023-02-15T05:27:40;2.80;99.90
19906;DHT22;10115;50.906;4.438;2023-02-15T05:30:24;2.90;99.90
19906;DHT22;10115;50.906;4.438;2023-02-15T05:32:49;2.90;99.90
19906;DHT22;10115;50.906;4.438;2023-02-15T05:35:16;2.90;99.90
19906;DHT22;10115;50.906;4.438;2023-02-15T05:37:41;3.00;99.90
19906;DHT22;10115;50.906;4.438;2023-02-15T05:40:08;3.00;99.90
19906;DHT22;10115;50.906;4.438;2023-02-15T05:42:34;3.00;99.90
19906;DHT22;10115;50.906;4.438;2023-02-15T05:45:00;2.90;99.90
19906;DHT22;10115;50.906;4.438;2023-02-15T05:47:25;2.90;99.90
19906;DHT22;10115;50.906;4.438;2023-02-15T05:49:51;2.80;99.90
19906;DHT22;10115;50.906;4.438;2023-02-15T05:52:17;2.90;99.90
19906;DHT22;10115;50.906;4.438;2023-02-15T05:54:43;2.90;99.90
19906;DHT22;10115;50.906;4.438;2023-02-15T05:57:09;2.80;99.90
19906;DHT22;10115;50.906;4.438;2023-02-15T05:59:36;2.90;99.90
19906;DHT22;10115;50.906;4.438;2023-02-15T06:02:02;2.90;99.90
19906;DHT22;10115;50.906;4.438;2023-02-15T06:04:29;2.90;99.90
19906;DHT22;10115;50.906;4.438;2023-02-15T06:06:54;2.90;99.90
19906;DHT22;10115;50.906;4.438;2023-02-15T06:09:20;2.80;99.90
19906;DHT22;10115;50.906;4.438;2023-02-15T06:11:45;2.70;99.90
19906;DHT22;10115;50.906;4.438;2023-02-15T06:14:11;2.60;99.90
19906;DHT22;10115;50.906;4.438;2023-02-15T06:16:37;2.60;99.90
19906;DHT22;10115;50.906;4.438;2023-02-15T06:19:03;2.50;99.90
19906;DHT22;10115;50.906;4.438;2023-02-15T06:21:30;2.40;99.90
19906;DHT22;10115;50.906;4.438;2023-02-15T06:23:56;2.40;99.90
19906;DHT22;10115;50.906;4.438;2023-02-15T06:26:21;2.40;99.90
19906;DHT22;10115;50.906;4.438;2023-02-15T06:28:47;2.40;99.90
19906;DHT22;10115;50.906;4.438;2023-02-15T06:31:13;2.40;99.90
19906;DHT22;10115;50.906;4.438;2023-02-15T06:33:38;2.30;99.90
19906;DHT22;10115;50.906;4.438;2023-02-15T06:36:04;2.40;99.90
19906;DHT22;10115;50.906;4.438;2023-02-15T06:38:32;2.30;99.90
19906;DHT22;10115;50.906;4.438;2023-02-15T06:40:58;2.30;99.90
19906;DHT22;10115;50.906;4.438;2023-02-15T06:43:23;2.30;99.90
19906;DHT22;10115;50.906;4.438;2023-02-15T06:45:49;2.20;99.90
19906;DHT22;10115;50.906;4.438;2023-02-15T06:48:15;2.20;99.90
19906;DHT22;10115;50.906;4.438;2023-02-15T06:50:40;2.30;99.90
19906;DHT22;10115;50.906;4.438;2023-02-15T06:53:06;2.30;99.90
19906;DHT22;10115;50.906;4.438;2023-02-15T06:55:32;2.30;99.90
19906;DHT22;10115;50.906;4.438;2023-02-15T06:57:57;2.30;99.90
19906;DHT22;10115;50.906;4.438;2023-02-15T07:00:23;2.30;99.90
19906;DHT22;10115;50.906;4.438;2023-02-15T07:02:56;2.20;99.90
19906;DHT22;10115;50.906;4.438;2023-02-15T07:05:23;2.20;99.90
19906;DHT22;10115;50.906;4.438;2023-02-15T07:07:49;2.30;99.90
19906;DHT22;10115;50.906;4.438;2023-02-15T07:10:15;2.30;99.90
19906;DHT22;10115;50.906;4.438;2023-02-15T07:12:41;2.30;99.90
19906;DHT22;10115;50.906;4.438;2023-02-15T07:15:14;2.30;99.90
19906;DHT22;10115;50.906;4.438;2023-02-15T07:17:40;2.30;99.90
19906;DHT22;10115;50.906;4.438;2023-02-15T07:20:10;2.30;99.90
19906;DHT22;10115;50.906;4.438;2023-02-15T07:22:36;2.40;99.90
19906;DHT22;10115;50.906;4.438;2023-02-15T07:25:07;2.50;99.90
19906;DHT22;10115;50.906;4.438;2023-02-15T07:27:33;2.60;99.90
19906;DHT22;10115;50.906;4.438;2023-02-15T07:30:00;2.60;99.90
19906;DHT22;10115;50.906;4.438;2023-02-15T07:32:30;2.80;99.90
19906;DHT22;10115;50.906;4.438;2023-02-15T07:34:57;2.80;99.90
19906;DHT22;10115;50.906;4.438;2023-02-15T07:37:23;2.90;99.90
19906;DHT22;10115;50.906;4.438;2023-02-15T07:39:49;3.00;99.90
19906;DHT22;10115;50.906;4.438;2023-02-15T07:42:15;3.20;99.90
19906;DHT22;10115;50.906;4.438;2023-02-15T07:44:40;3.40;99.90
19906;DHT22;10115;50.906;4.438;2023-02-15T07:47:06;3.50;99.90
19906;DHT22;10115;50.906;4.438;2023-02-15T07:49:32;3.60;99.90
19906;DHT22;10115;50.906;4.438;2023-02-15T07:52:00;3.70;99.90
19906;DHT22;10115;50.906;4.438;2023-02-15T07:54:27;3.60;99.90
19906;DHT22;10115;50.906;4.438;2023-02-15T07:56:52;3.60;99.90
19906;DHT22;10115;50.906;4.438;2023-02-15T07:59:18;3.60;99.90
19906;DHT22;10115;50.906;4.438;2023-02-15T08:01:43;3.70;99.90
19906;DHT22;10115;50.906;4.438;2023-02-15T08:04:09;3.80;99.90
19906;DHT22;10115;50.906;4.438;2023-02-15T08:06:37;4.00;99.90
19906;DHT22;10115;50.906;4.438;2023-02-15T08:09:05;4.10;99.90
19906;DHT22;10115;50.906;4.438;2023-02-15T08:11:33;4.10;99.90
19906;DHT22;10115;50.906;4.438;2023-02-15T08:16:43;4.40;99.90
19906;DHT22;10115;50.906;4.438;2023-02-15T08:19:13;4.40;99.90
19906;DHT22;10115;50.906;4.438;2023-02-15T08:21:42;4.60;99.90
19906;DHT22;10115;50.906;4.438;2023-02-15T08:24:09;4.60;99.90
19906;DHT22;10115;50.906;4.438;2023-02-15T08:26:36;4.80;99.90
19906;DHT22;10115;50.906;4.438;2023-02-15T08:29:02;5.00;99.90
19906;DHT22;10115;50.906;4.438;2023-02-15T08:31:29;5.10;99.90
19906;DHT22;10115;50.906;4.438;2023-02-15T08:33:55;5.20;99.90
19906;DHT22;10115;50.906;4.438;2023-02-15T08:36:23;5.30;99.90
19906;DHT22;10115;50.906;4.438;2023-02-15T08:38:49;5.40;99.90
19906;DHT22;10115;50.906;4.438;2023-02-15T08:43:42;5.40;99.90
19906;DHT22;10115;50.906;4.438;2023-02-15T08:46:09;5.50;99.90
19906;DHT22;10115;50.906;4.438;2023-02-15T08:48:34;5.60;99.90
19906;DHT22;10115;50.906;4.438;2023-02-15T08:51:05;5.90;99.90
19906;DHT22;10115;50.906;4.438;2023-02-15T08:53:32;6.20;99.90
19906;DHT22;10115;50.906;4.438;2023-02-15T08:55:58;6.40;99.90
19906;DHT22;10115;50.906;4.438;2023-02-15T08:58:24;6.50;99.90
19906;DHT22;10115;50.906;4.438;2023-02-15T09:00:51;6.60;99.90
19906;DHT22;10115;50.906;4.438;2023-02-15T09:03:17;6.50;99.90
19906;DHT22;10115;50.906;4.438;2023-02-15T09:05:42;6.60;99.90
19906;DHT22;10115;50.906;4.438;2023-02-15T09:08:08;6.70;99.90
19906;DHT22;10115;50.906;4.438;2023-02-15T09:10:34;6.70;99.90
19906;DHT22;10115;50.906;4.438;2023-02-15T09:12:59;6.70;99.90
19906;DHT22;10115;50.906;4.438;2023-02-15T09:15:25;6.70;99.90
19906;DHT22;10115;50.906;4.438;2023-02-15T09:17:51;6.80;99.90
19906;DHT22;10115;50.906;4.438;2023-02-15T09:20:16;6.90;99.90
19906;DHT22;10115;50.906;4.438;2023-02-15T09:22:43;7.00;99.90
19906;DHT22;10115;50.906;4.438;2023-02-15T09:25:08;7.10;99.90
19906;DHT22;10115;50.906;4.438;2023-02-15T09:27:34;7.30;99.90
19906;DHT22;10115;50.906;4.438;2023-02-15T09:30:00;7.30;99.90
19906;DHT22;10115;50.906;4.438;2023-02-15T09:32:25;7.40;99.90
19906;DHT22;10115;50.906;4.438;2023-02-15T09:34:51;7.50;99.90
19906;DHT22;10115;50.906;4.438;2023-02-15T09:37:17;7.70;99.90
19906;DHT22;10115;50.906;4.438;2023-02-15T09:39:43;7.80;99.90
19906;DHT22;10115;50.906;4.438;2023-02-15T09:50:55;8.20;99.90
19906;DHT22;10115;50.906;4.438;2023-02-15T09:56:39;8.50;99.90
19906;DHT22;10115;50.906;4.438;2023-02-15T09:59:36;8.60;99.90
19906;DHT22;10115;50.906;4.438;2023-02-15T10:10:51;9.00;99.90
19906;DHT22;10115;50.906;4.438;2023-02-15T10:13:41;9.00;99.90
19906;DHT22;10115;50.906;4.438;2023-02-15T10:16:26;9.10;99.90
19906;DHT22;10115;50.906;4.438;2023-02-15T10:25:17;9.50;99.90
19906;DHT22;10115;50.906;4.438;2023-02-15T10:27:47;9.60;99.90
19906;DHT22;10115;50.906;4.438;2023-02-15T10:30:26;9.70;99.90
19906;DHT22;10115;50.906;4.438;2023-02-15T10:33:27;9.80;99.90
19906;DHT22;10115;50.906;4.438;2023-02-15T10:36:30;9.90;99.90
19906;DHT22;10115;50.906;4.438;2023-02-15T10:41:53;10.00;99.90
19906;DHT22;10115;50.906;4.438;2023-02-15T10:47:31;10.00;99.90
19906;DHT22;10115;50.906;4.438;2023-02-15T10:50:48;10.20;99.90
19906;DHT22;10115;50.906;4.438;2023-02-15T11:03:39;10.10;99.90
19906;DHT22;10115;50.906;4.438;2023-02-15T11:06:09;10.10;99.90
19906;DHT22;10115;50.906;4.438;2023-02-15T11:08:57;10.10;99.90
19906;DHT22;10115;50.906;4.438;2023-02-15T11:11:32;10.20;99.90
19906;DHT22;10115;50.906;4.438;2023-02-15T11:16:50;10.20;99.90
19906;DHT22;10115;50.906;4.438;2023-02-15T11:19:48;10.30;99.90
19906;DHT22;10115;50.906;4.438;2023-02-15T11:22:10;10.40;99.90
19906;DHT22;10115;50.906;4.438;2023-02-15T11:24:45;10.60;99.90
19906;DHT22;10115;50.906;4.438;2023-02-15T11:27:31;10.60;99.90
19906;DHT22;10115;50.906;4.438;2023-02-15T11:30:13;10.80;99.90
19906;DHT22;10115;50.906;4.438;2023-02-15T11:32:47;10.80;99.90
19906;DHT22;10115;50.906;4.438;2023-02-15T11:37:53;10.70;99.90
19906;DHT22;10115;50.906;4.438;2023-02-15T11:40:26;10.60;99.90
19906;DHT22;10115;50.906;4.438;2023-02-15T11:43:04;10.80;99.90
19906;DHT22;10115;50.906;4.438;2023-02-15T11:45:32;10.90;99.90
19906;DHT22;10115;50.906;4.438;2023-02-15T11:48:00;10.90;99.90
19906;DHT22;10115;50.906;4.438;2023-02-15T11:50:32;11.20;99.90
19906;DHT22;10115;50.906;4.438;2023-02-15T11:53:14;11.20;99.90
19906;DHT22;10115;50.906;4.438;2023-02-15T11:55:43;11.20;99.90
19906;DHT22;10115;50.906;4.438;2023-02-15T12:01:19;11.20;99.90
19906;DHT22;10115;50.906;4.438;2023-02-15T12:06:28;11.20;99.90
19906;DHT22;10115;50.906;4.438;2023-02-15T12:09:21;11.20;99.90
19906;DHT22;10115;50.906;4.438;2023-02-15T12:11:51;11.20;99.90
19906;DHT22;10115;50.906;4.438;2023-02-15T12:14:16;11.20;99.90
19906;DHT22;10115;50.906;4.438;2023-02-15T12:16:46;11.30;99.90
19906;DHT22;10115;50.906;4.438;2023-02-15T12:19:31;11.50;99.90
19906;DHT22;10115;50.906;4.438;2023-02-15T12:21:59;11.60;99.90
19906;DHT22;10115;50.906;4.438;2023-02-15T12:24:29;11.60;99.90
19906;DHT22;10115;50.906;4.438;2023-02-15T12:26:59;11.70;99.90
19906;DHT22;10115;50.906;4.438;2023-02-15T12:29:29;11.70;99.90
19906;DHT22;10115;50.906;4.438;2023-02-15T12:31:56;11.60;99.90
19906;DHT22;10115;50.906;4.438;2023-02-15T12:34:26;11.60;99.90
19906;DHT22;10115;50.906;4.438;2023-02-15T12:36:57;11.50;99.90
19906;DHT22;10115;50.906;4.438;2023-02-15T12:39:27;11.50;99.90
19906;DHT22;10115;50.906;4.438;2023-02-15T12:47:03;11.90;99.90
19906;DHT22;10115;50.906;4.438;2023-02-15T12:49:37;12.00;99.90
19906;DHT22;10115;50.906;4.438;2023-02-15T12:52:25;11.90;99.90
19906;DHT22;10115;50.906;4.438;2023-02-15T12:54:51;12.20;99.90
19906;DHT22;10115;50.906;4.438;2023-02-15T12:59:55;12.30;99.90
19906;DHT22;10115;50.906;4.438;2023-02-15T13:05:18;12.30;99.90
19906;DHT22;10115;50.906;4.438;2023-02-15T13:07:53;12.30;99.90
19906;DHT22;10115;50.906;4.438;2023-02-15T13:10:35;12.50;99.90
19906;DHT22;10115;50.906;4.438;2023-02-15T13:13:01;12.80;99.90
19906;DHT22;10115;50.906;4.438;2023-02-15T13:15:35;12.70;99.90
19906;DHT22;10115;50.906;4.438;2023-02-15T13:18:02;12.60;99.90
19906;DHT22;10115;50.906;4.438;2023-02-15T13:20:30;12.60;99.90
19906;DHT22;10115;50.906;4.438;2023-02-15T13:23:28;12.60;99.90
19906;DHT22;10115;50.906;4.438;2023-02-15T13:25:56;12.50;99.90
19906;DHT22;10115;50.906;4.438;2023-02-15T13:31:18;12.50;99.90
19906;DHT22;10115;50.906;4.438;2023-02-15T13:34:09;12.60;99.90
19906;DHT22;10115;50.906;4.438;2023-02-15T13:39:40;12.90;99.90
19906;DHT22;10115;50.906;4.438;2023-02-15T13:42:27;12.80;99.90
19906;DHT22;10115;50.906;4.438;2023-02-15T13:47:52;12.70;99.90
19906;DHT22;10115;50.906;4.438;2023-02-15T13:50:38;12.70;99.90
19906;DHT22;10115;50.906;4.438;2023-02-15T13:58:58;12.60;99.90
19906;DHT22;10115;50.906;4.438;2023-02-15T14:15:47;13.40;99.90
19906;DHT22;10115;50.906;4.438;2023-02-15T14:20:51;13.70;99.90
19906;DHT22;10115;50.906;4.438;2023-02-15T14:26:02;13.90;99.90
19906;DHT22;10115;50.906;4.438;2023-02-15T14:31:15;13.50;99.90
19906;DHT22;10115;50.906;4.438;2023-02-15T14:33:57;13.00;99.90
19906;DHT22;10115;50.906;4.438;2023-02-15T14:36:24;12.80;99.90
19906;DHT22;10115;50.906;4.438;2023-02-15T14:41:42;12.80;99.90
19906;DHT22;10115;50.906;4.438;2023-02-15T14:44:35;12.70;99.90
19906;DHT22;10115;50.906;4.438;2023-02-15T14:47:15;12.90;99.90
19906;DHT22;10115;50.906;4.438;2023-02-15T14:49:43;13.10;99.90
19906;DHT22;10115;50.906;4.438;2023-02-15T14:52:10;12.80;99.90
19906;DHT22;10115;50.906;4.438;2023-02-15T14:59:50;12.90;99.90
19906;DHT22;10115;50.906;4.438;2023-02-15T15:07:57;12.70;99.90
19906;DHT22;10115;50.906;4.438;2023-02-15T15:10:34;12.60;99.90
19906;DHT22;10115;50.906;4.438;2023-02-15T15:19:04;12.60;99.90
19906;DHT22;10115;50.906;4.438;2023-02-15T15:38:30;13.30;99.90
19906;DHT22;10115;50.906;4.438;2023-02-15T15:44:07;13.10;99.90
19906;DHT22;10115;50.906;4.438;2023-02-15T15:49:37;12.70;99.90
19906;DHT22;10115;50.906;4.438;2023-02-15T15:52:13;12.50;99.90
19906;DHT22;10115;50.906;4.438;2023-02-15T15:54:40;12.40;99.90
19906;DHT22;10115;50.906;4.438;2023-02-15T15:57:17;12.30;99.90
19906;DHT22;10115;50.906;4.438;2023-02-15T15:59:45;12.20;99.90
19906;DHT22;10115;50.906;4.438;2023-02-15T16:02:14;12.30;99.90
19906;DHT22;10115;50.906;4.438;2023-02-15T16:04:44;12.30;99.90
19906;DHT22;10115;50.906;4.438;2023-02-15T16:07:23;12.20;99.90
19906;DHT22;10115;50.906;4.438;2023-02-15T16:10:00;12.10;99.90
19906;DHT22;10115;50.906;4.438;2023-02-15T16:12:27;11.90;99.90
19906;DHT22;10115;50.906;4.438;2023-02-15T16:14:54;11.80;99.90
19906;DHT22;10115;50.906;4.438;2023-02-15T16:17:27;11.80;99.90
19906;DHT22;10115;50.906;4.438;2023-02-15T16:22:39;11.70;99.90
19906;DHT22;10115;50.906;4.438;2023-02-15T16:25:46;11.70;99.90
19906;DHT22;10115;50.906;4.438;2023-02-15T16:27:53;11.60;99.90
19906;DHT22;10115;50.906;4.438;2023-02-15T16:30:28;11.60;99.90
19906;DHT22;10115;50.906;4.438;2023-02-15T16:33:09;11.50;99.90
19906;DHT22;10115;50.906;4.438;2023-02-15T16:35:39;11.40;99.90
19906;DHT22;10115;50.906;4.438;2023-02-15T16:38:09;11.40;99.90
19906;DHT22;10115;50.906;4.438;2023-02-15T16:40:48;11.40;99.90
19906;DHT22;10115;50.906;4.438;2023-02-15T16:43:26;11.30;99.90
19906;DHT22;10115;50.906;4.438;2023-02-15T16:46:02;11.20;99.90
19906;DHT22;10115;50.906;4.438;2023-02-15T16:48:29;11.20;99.90
19906;DHT22;10115;50.906;4.438;2023-02-15T16:50:57;11.20;99.90
19906;DHT22;10115;50.906;4.438;2023-02-15T16:53:28;11.20;99.90
19906;DHT22;10115;50.906;4.438;2023-02-15T16:55:57;11.20;99.90
19906;DHT22;10115;50.906;4.438;2023-02-15T16:58:29;11.10;99.90
19906;DHT22;10115;50.906;4.438;2023-02-15T17:00:58;11.00;99.90
19906;DHT22;10115;50.906;4.438;2023-02-15T17:03:26;10.80;99.90
19906;DHT22;10115;50.906;4.438;2023-02-15T17:06:00;10.70;99.90
19906;DHT22;10115;50.906;4.438;2023-02-15T17:11:10;10.90;99.90
19906;DHT22;10115;50.906;4.438;2023-02-15T17:13:37;10.80;99.90
19906;DHT22;10115;50.906;4.438;2023-02-15T17:18:44;10.70;99.90
19906;DHT22;10115;50.906;4.438;2023-02-15T17:21:19;10.60;99.90
19906;DHT22;10115;50.906;4.438;2023-02-15T17:23:50;10.70;99.90
19906;DHT22;10115;50.906;4.438;2023-02-15T17:26:22;10.60;99.90
19906;DHT22;10115;50.906;4.438;2023-02-15T17:28:54;10.60;99.90
19906;DHT22;10115;50.906;4.438;2023-02-15T17:31:25;10.50;99.90
19906;DHT22;10115;50.906;4.438;2023-02-15T17:33:53;10.50;99.90
19906;DHT22;10115;50.906;4.438;2023-02-15T17:36:22;10.40;99.90
19906;DHT22;10115;50.906;4.438;2023-02-15T17:41:31;10.40;99.90
19906;DHT22;10115;50.906;4.438;2023-02-15T17:43:58;10.40;99.90
19906;DHT22;10115;50.906;4.438;2023-02-15T17:46:25;10.20;99.90
19906;DHT22;10115;50.906;4.438;2023-02-15T17:48:54;10.10;99.90
19906;DHT22;10115;50.906;4.438;2023-02-15T17:51:21;10.10;99.90
19906;DHT22;10115;50.906;4.438;2023-02-15T17:53:48;10.10;99.90
19906;DHT22;10115;50.906;4.438;2023-02-15T17:56:33;10.10;99.90
19906;DHT22;10115;50.906;4.438;2023-02-15T17:58:59;10.00;99.90
19906;DHT22;10115;50.906;4.438;2023-02-15T18:01:25;10.10;99.90
19906;DHT22;10115;50.906;4.438;2023-02-15T18:04:14;10.10;99.90
19906;DHT22;10115;50.906;4.438;2023-02-15T18:06:58;10.10;99.90
19906;DHT22;10115;50.906;4.438;2023-02-15T18:09:43;10.10;99.90
19906;DHT22;10115;50.906;4.438;2023-02-15T18:12:35;10.30;99.90
19906;DHT22;10115;50.906;4.438;2023-02-15T18:15:04;10.40;99.90
19906;DHT22;10115;50.906;4.438;2023-02-15T18:17:39;10.40;99.90
19906;DHT22;10115;50.906;4.438;2023-02-15T18:20:17;10.50;99.90
19906;DHT22;10115;50.906;4.438;2023-02-15T18:22:45;10.30;99.90
19906;DHT22;10115;50.906;4.438;2023-02-15T18:25:15;10.20;99.90
19906;DHT22;10115;50.906;4.438;2023-02-15T18:27:42;10.00;99.90
19906;DHT22;10115;50.906;4.438;2023-02-15T18:30:12;9.90;99.90
19906;DHT22;10115;50.906;4.438;2023-02-15T18:32:38;9.90;99.90
19906;DHT22;10115;50.906;4.438;2023-02-15T18:35:05;9.80;99.90
19906;DHT22;10115;50.906;4.438;2023-02-15T18:37:32;9.80;99.90
19906;DHT22;10115;50.906;4.438;2023-02-15T18:39:59;9.80;99.90
19906;DHT22;10115;50.906;4.438;2023-02-15T18:42:30;9.80;99.90
19906;DHT22;10115;50.906;4.438;2023-02-15T18:44:58;9.80;99.90
19906;DHT22;10115;50.906;4.438;2023-02-15T18:47:26;9.80;99.90
19906;DHT22;10115;50.906;4.438;2023-02-15T18:49:52;9.80;99.90
19906;DHT22;10115;50.906;4.438;2023-02-15T18:52:23;9.80;99.90
19906;DHT22;10115;50.906;4.438;2023-02-15T18:54:54;9.80;99.90
19906;DHT22;10115;50.906;4.438;2023-02-15T18:57:20;9.80;99.90
19906;DHT22;10115;50.906;4.438;2023-02-15T18:59:46;9.70;99.90
19906;DHT22;10115;50.906;4.438;2023-02-15T19:02:13;9.70;99.90
19906;DHT22;10115;50.906;4.438;2023-02-15T19:04:39;9.80;99.90
19906;DHT22;10115;50.906;4.438;2023-02-15T19:07:05;9.80;99.90
19906;DHT22;10115;50.906;4.438;2023-02-15T19:09:31;9.70;99.90
19906;DHT22;10115;50.906;4.438;2023-02-15T19:11:58;9.60;99.90
19906;DHT22;10115;50.906;4.438;2023-02-15T19:14:28;9.70;99.90
19906;DHT22;10115;50.906;4.438;2023-02-15T19:16:56;9.70;99.90